• Join FlightAware (Why Join?)
  • Login
  • US Flag 
03:54PM EDT


 

Airport Tracker/Info


-or-


 

Live Flight TrackerFlight Track Log ✈ AAL832 ✈ 05-May-2013 ✈ KORD - KMIA

Flight Track Log - Related Links

Times and Time Zones

All times are in EDT time to prevent confusion due to time zone crossing. See the AAL832 flight status page for this flight to view local times or setup timezone preferences in your user account.

Time Position Orientation Groundspeed Altitude Reporting Facility
EDT Latitude Longitude Course Direction KTS MPH feet Rate Location/Type
05:58PM 41.9833 -87.8667 157° South 172 198 2,100  Level Chicago TRACON
05:59PM 41.9333 -87.8333 154° Southeast 216 249 4,000 2,940 Climbing Chicago TRACON
06:00PM 41.7712 -87.7836 180° South  Level Estimated
06:01PM 41.6659 -87.7223 180° South  Level Estimated
06:01PM 41.7719 -87.8894 195° South 284 327 11,900  Level Chicago Center
06:02PM 41.5606 -87.6613 176° South  Level Estimated
06:02PM 41.6908 -87.8867 179° South 290 334 14,800  Level Chicago Center
06:03PM 41.4553 -87.6004 189° South  Level Estimated
06:03PM 41.5794 -87.8817 178° South 344 396 16,700  Level Chicago Center
06:04PM 41.3507 -87.5402 157° South  Level Estimated
06:04PM 41.4728 -87.8786 179° South 372 428 19,200  Level Chicago Center
06:05PM 41.3603 -87.8797 180° South 394 453 21,500 2,160 Climbing Chicago Center
06:06PM 41.2453 -87.8914 184° South 408 470 23,700 1,980 Climbing Chicago Center
06:07PM 41.1272 -87.8881 179° South 422 486 25,600 1,920 Climbing Chicago Center
06:08PM 41.0069 -87.8847 179° South 430 495 27,700 1,860 Climbing Chicago Center
06:10PM 40.8850 -87.8811 179° South 436 502 29,500 2,040 Climbing Chicago Center
06:11PM 40.7392 -87.8767 179° South 438 504 32,000 2,100 Climbing Chicago Center
06:12PM 40.6233 -87.8536 171° South 427 491 33,900 1,860 Climbing Chicago Center
06:13PM 40.5117 -87.8239 169° South 415 478 35,900 1,920 Climbing Chicago Center
06:14PM 40.4047 -87.7928 168° South 403 464 37,900 1,320 Climbing Chicago Center
06:15PM 40.2994 -87.7661 169° South 390 449 38,700 540 Climbing Chicago Center
06:16PM 40.1800 -87.7339 168° South 398 458 39,000 60 Climbing Indianapolis Center
06:18PM 39.9536 -87.6719 168° South 421 484 39,000  Level Chicago Center
06:19PM 39.8369 -87.6400 168° South 422 486 39,000  Level Indianapolis Center
06:20PM 39.6994 -87.6047 169° South 423 487 39,000  Level Indianapolis Center
06:21PM 39.5861 -87.5742 168° South 421 484 39,000  Level Indianapolis Center
06:22PM 39.4708 -87.5419 168° South 423 487 39,000  Level Indianapolis Center
06:23PM 39.3558 -87.5114 168° South 424 488 39,000  Level Indianapolis Center
06:24PM 39.2414 -87.4811 168° South 424 488 39,000  Level Indianapolis Center
06:25PM 39.1019 -87.4447 169° South 427 491 39,000  Level Indianapolis Center
06:26PM 38.9792 -87.4111 168° South 428 493 39,000  Level Indianapolis Center
06:27PM 38.8617 -87.3797 168° South 429 494 39,000  Level Indianapolis Center
06:28PM 38.7442 -87.3483 168° South 430 495 39,000  Level Indianapolis Center
06:29PM 38.6261 -87.3186 169° South 431 496 39,000  Level Indianapolis Center
06:31PM 38.4714 -87.2761 168° South  Level FlightAware Approximate
06:31PM 38.3900 -87.2572 168° South 434 499 39,000  Level Indianapolis Center
06:33PM 38.2428 -87.2163 168° South  Level FlightAware Approximate
06:33PM 38.1319 -87.1906 168° South 438 504 39,000  Level Indianapolis Center
06:35PM 37.9925 -87.1504 167° South  Level FlightAware Approximate
06:35PM 37.8933 -87.1272 167° South 438 504 39,000  Level Indianapolis Center
06:36PM 37.7725 -87.0975 169° South 441 507 39,000  Level Indianapolis Center
06:37PM 37.6283 -87.0597 168° South 440 506 39,000  Level Indianapolis Center
06:38PM 37.5269 -87.0386 171° South 445 512 39,000  Level Memphis Center
06:39PM 37.4075 -87.0044 167° South 445 512 39,000  Level Memphis Center
06:41PM 37.1703 -86.9417 168° South 451 519 39,000  Level Memphis Center
06:42PM 37.0486 -86.9131 169° South 451 519 39,000  Level Memphis Center
06:43PM 36.9269 -86.8819 168° South 446 513 39,000  Level Memphis Center
06:44PM 36.8072 -86.8508 168° South 446 513 39,000  Level Memphis Center
06:45PM 36.7003 -86.8244 169° South 446 513 39,000  Level Memphis Center
06:46PM 36.5806 -86.7936 168° South 446 513 39,000  Level Memphis Center
06:47PM 36.4608 -86.7600 167° South 446 513 39,000  Level Memphis Center
06:48PM 36.3203 -86.7328 171° South 452 520 39,000  Level Memphis Center
06:49PM 36.1983 -86.6997 168° South 452 520 39,000  Level Memphis Center
06:50PM 36.0861 -86.6406 157° South 442 509 39,000  Level Memphis Center
06:51PM 35.9875 -86.5475 143° Southeast 443 510 39,000  Level Memphis Center
06:52PM 35.8867 -86.4547 143° Southeast 443 510 39,000  Level Memphis Center
06:53PM 35.7878 -86.3622 143° Southeast 450 518 39,000  Level Memphis Center
06:55PM 35.5892 -86.1789 143° Southeast 450 518 39,000  Level Atlanta Center
06:56PM 35.4822 -86.0817 143° Southeast 450 518 39,000  Level Atlanta Center
06:57PM 35.3733 -85.9797 143° Southeast 445 512 39,000  Level Atlanta Center
06:58PM 35.2744 -85.8933 144° Southeast 445 512 39,000  Level Atlanta Center
06:59PM 35.1881 -85.8128 143° Southeast 445 512 39,000  Level Atlanta Center
07:00PM 35.0911 -85.7267 144° Southeast 445 512 39,000  Level Atlanta Center
07:01PM 34.9942 -85.6411 144° Southeast 445 512 39,000  Level Atlanta Center
07:02PM 34.8994 -85.5533 143° Southeast 445 512 39,000  Level Atlanta Center
07:03PM 34.8025 -85.4681 144° Southeast 440 506 39,000  Level Atlanta Center
07:04PM 34.7072 -85.3831 144° Southeast 435 501 39,000  Level Atlanta Center
07:05PM 34.6103 -85.2956 143° Southeast 435 501 39,000  Level Atlanta Center
07:06PM 34.5128 -85.2111 144° Southeast 430 495 39,000  Level Atlanta Center
07:07PM 34.4219 -85.1242 142° Southeast 425 489 39,000  Level Atlanta Center
07:08PM 34.3161 -85.0347 145° Southeast 430 495 39,000  Level Atlanta Center
07:09PM 34.2208 -84.9508 144° Southeast 425 489 39,000  Level Atlanta Center
07:10PM 34.1256 -84.8669 144° Southeast 425 489 39,000  Level Atlanta Center
07:11PM 34.0342 -84.7908 145° Southeast 425 489 39,000  Level Atlanta Center
07:12PM 33.9386 -84.7072 144° Southeast 425 489 39,000  Level Atlanta Center
07:13PM 33.8306 -84.6239 147° Southeast 425 489 39,000  Level Atlanta Center
07:14PM 33.7242 -84.5933 167° South 414 476 39,000  Level Atlanta Center
07:15PM 33.6136 -84.5378 157° South 420 483 39,000  Level Atlanta Center
07:16PM 33.4908 -84.4822 159° South 431 496 39,000  Level Atlanta Center
07:17PM 33.3761 -84.4294 159° South 431 496 39,000  Level Atlanta Center
07:18PM 33.2636 -84.3792 160° South 431 496 39,000  Level Atlanta Center
07:19PM 33.1511 -84.3267 159° South 436 502 39,000  Level Atlanta Center
07:20PM 33.0364 -84.2742 159° South 431 496 39,000  Level Atlanta Center
07:21PM 32.9258 -84.2219 158° South 431 496 39,000  Level Atlanta Center
07:22PM 32.8131 -84.1722 160° South 431 496 39,000  Level Atlanta Center
07:23PM 32.7006 -84.1203 159° South 431 496 39,000  Level Atlanta Center
07:24PM 32.5878 -84.0683 159° South 431 496 39,000  Level Atlanta Center
07:25PM 32.4750 -84.0192 160° South 431 496 39,000  Level Atlanta Center
07:26PM 32.3622 -83.9700 160° South 431 496 39,000  Level Atlanta Center
07:27PM 32.2475 -83.9208 160° South 431 496 39,000  Level Atlanta Center
07:28PM 32.1325 -83.8697 159° South 431 496 39,000  Level Atlanta Center
07:29PM 32.0692 -83.8389 158° South 428 493 39,000  Level Jacksonville Center
07:30PM 31.9525 -83.7886 160° South 434 499 39,000  Level Jacksonville Center
07:31PM 31.8422 -83.7339 157° South 434 499 39,000  Level Jacksonville Center
07:32PM 31.7297 -83.6817 158° South 434 499 39,000  Level Jacksonville Center
07:33PM 31.6006 -83.6342 163° South 434 499 39,000  Level Jacksonville Center
07:34PM 31.4839 -83.5819 159° South 439 505 39,000  Level Jacksonville Center
07:35PM 31.3736 -83.5350 160° South 433 498 39,000  Level Jacksonville Center
07:36PM 31.2631 -83.4856 159° South 433 498 39,000  Level Jacksonville Center
07:37PM 31.1506 -83.4364 159° South 427 491 39,000  Level Jacksonville Center
07:38PM 31.0403 -83.3897 160° South 427 491 39,000  Level Jacksonville Center
07:39PM 30.9256 -83.3406 160° South 427 491 39,000  Level Jacksonville Center
07:40PM 30.8381 -83.3014 159° South 427 491 39,000  Level Jacksonville Center
07:41PM 30.7169 -83.2453 158° South 427 491 39,000  Level Jacksonville Center
07:42PM 30.6086 -83.1894 156° South 432 497 39,000  Level Jacksonville Center
07:43PM 30.4958 -83.1336 157° South 432 497 39,000  Level Jacksonville Center
07:44PM 30.3833 -83.0756 156° South 437 503 39,000  Level Jacksonville Center
07:45PM 30.2728 -83.0225 157° South 437 503 39,000  Level Jacksonville Center
07:46PM 30.1600 -82.9669 157° South 437 503 39,000  Level Jacksonville Center
07:47PM 30.0453 -82.9094 157° South 437 503 39,000  Level Jacksonville Center
07:48PM 29.9303 -82.8542 157° South 443 510 39,000  Level Jacksonville Center
07:49PM 29.8175 -82.8017 158° South 443 510 39,000  Level Jacksonville Center
07:50PM 29.7047 -82.7467 157° South 443 510 39,000  Level Jacksonville Center
07:51PM 29.5919 -82.6894 156° South 443 510 39,000  Level Jacksonville Center
07:52PM 29.4644 -82.6253 156° South 448 516 39,000  Level Jacksonville Center
07:53PM 29.3517 -82.5686 156° South 448 516 39,000  Level Jacksonville Center
07:54PM 29.2389 -82.5142 157° South 443 510 39,000  Level Jacksonville Center
07:55PM 29.1219 -82.4814 166° South 438 504 39,000  Level Jacksonville Center
07:56PM 29.0050 -82.4700 175° South 432 497 39,000  Level Jacksonville Center
07:57PM 28.8858 -82.4586 175° South 426 490 39,000  Level Jacksonville Center
07:58PM 28.7689 -82.4450 174° South 426 490 39,000  Level Jacksonville Center
07:59PM 28.6542 -82.4358 176° South 421 484 39,000  Level Jacksonville Center
08:00PM 28.5350 -82.4247 175° South 421 484 39,000  Level Jacksonville Center
08:01PM 28.4183 -82.4133 175° South 421 484 39,000  Level Jacksonville Center
08:02PM 28.3014 -82.4044 176° South 421 484 39,000  Level Jacksonville Center
08:04PM 28.1339 -82.3842 174° South 427 491 39,000  Level Miami Center
08:05PM 28.0194 -82.3739 175° South 421 484 39,000  Level Miami Center
08:06PM 27.9053 -82.3614 174° South 421 484 39,000  Level Miami Center
08:07PM 27.7889 -82.3508 175° South 421 484 39,000  Level Miami Center
08:08PM 27.6661 -82.3381 175° South 409 471 39,000  Level Miami Center
08:09PM 27.5519 -82.3231 173° South 409 471 39,000 -420 Level Miami Center
08:10PM 27.4436 -82.2667 155° Southeast 421 484 38,200 -1,140 Descending Miami Center
08:11PM 27.3503 -82.1897 144° Southeast 439 505 36,800 -1,440 Descending Miami Center
08:12PM 27.2350 -82.0933 143° Southeast 455 524 35,400 -1,320 Descending Miami Center
08:13PM 27.1317 -82.0069 143° Southeast 471 542 34,200 -1,200 Descending Miami Center
08:14PM 27.0264 -81.9161 142° Southeast 471 542 33,000 -1,440 Descending Miami Center
08:15PM 26.9167 -81.8275 144° Southeast 483 556 31,400 -1,500 Descending Miami Center
08:16PM 26.8131 -81.7394 143° Southeast 483 556 30,100 -1,140 Descending Miami Center
08:17PM 26.7075 -81.6514 143° Southeast 483 556 29,200 -900 Descending Miami Center
08:18PM 26.6122 -81.5639 141° Southeast 466 536 28,300 -1,020 Descending Miami Center
08:19PM 26.5106 -81.4786 143° Southeast 461 531 27,200 -1,740 Descending Miami Center
08:20PM 26.4089 -81.3958 144° Southeast 461 531 24,900 -2,220 Descending Miami Center
08:21PM 26.3153 -81.3158 143° Southeast 450 518 22,800 -2,100 Descending Miami Center
08:22PM 26.2236 -81.2383 143° Southeast 431 496 20,700 -1,860 Descending Miami Center
08:23PM 26.1522 -81.1778 143° Southeast 418 481 19,100 -2,160 Descending Miami Center
08:24PM 26.0442 -81.0953 146° Southeast 394 453 16,500 -1,560 Descending Miami Center
08:25PM 25.9606 -81.0206 141° Southeast 397 457 16,000 -540 Descending Miami Center
08:25PM 25.9214 -80.9986 153° Southeast 376 433 15,800 -1,320 Descending Miami Center
08:26PM 25.8833 -80.9442 128° Southeast 385 443 14,700 -1,800 Descending Miami Center
08:26PM 25.8617 -80.8950 116° Southeast 371 427 14,000 -1,740 Descending Miami Center
08:27PM 25.8531 -80.8347 99° East 358 412 13,000 -1,620 Descending Miami Center
08:27PM 25.8500 -80.7861 94° East 356 410 12,400 -1,620 Descending Miami Center
08:28PM 25.8581 -80.7239 82° East 344 396 11,400 -1,800 Descending Miami Center
08:28PM 25.8569 -80.6869 92° East 346 398 10,800 -1,440 Descending Miami Center
08:29PM 25.8608 -80.6203 86° East 339 390 10,000 -720 Descending Miami Center
08:29PM 25.8492 -80.5853 110° East 340 391 10,100  Climbing Miami Center
08:30PM 25.8214 -80.5267 118° Southeast 324 373 10,000 -120 Descending Miami Center
08:30PM 25.7972 -80.4892 126° Southeast 337 388 10,000  Level Miami Center
08:31PM 25.7794 -80.4469 115° Southeast 324 373 10,000  Level Miami Center
08:31PM 25.7453 -80.3953 126° Southeast 334 384 10,000 -300 Level Miami Center
08:32PM 25.7333 -80.3603 111° Southeast 330 380 9,700 -1,680 Descending Miami Center
08:32PM 25.7033 -80.3133 125° Southeast 287 330 8,300 -2,340 Descending Miami Center
08:33PM 25.6914 -80.2831 114° Southeast 313 360 7,400 -2,520 Descending Miami Center
08:33PM 25.6653 -80.2431 126° Southeast 286 329 6,000 -2,640 Descending Miami Center
08:34PM 25.6272 -80.1706 120° Southeast 279 321 3,700 -1,500 Descending Miami Center
08:35PM 25.6597 -80.1161 56° Northeast 211 243 3,000 -420 Descending Miami Center
08:36PM 25.7133 -80.1522 329° Northwest 201 231 2,900 -660 Descending Miami Center
08:37PM 25.7414 -80.2014 302° West 187 215 1,700 -960 Descending Miami Center
08:38PM 25.7633 -80.2389 303° West 143 165 1,100 -780 Descending Miami Center
08:39PM 25.7814 -80.2786 297° West 127 146 200 -840 Descending Miami Center